sensor_id;sensor_type;location;lat;lon;timestamp;P1;durP1;ratioP1;P2;durP2;ratioP2
11537;SDS011;50159;49.426;11.182;2023-04-09T00:01:04;5.20;;;4.53;;
11537;SDS011;50159;49.426;11.182;2023-04-09T00:03:33;4.30;;;4.00;;
11537;SDS011;50159;49.426;11.182;2023-04-09T00:06:01;4.70;;;4.30;;
11537;SDS011;50159;49.426;11.182;2023-04-09T00:08:28;4.50;;;4.20;;
11537;SDS011;50159;49.426;11.182;2023-04-09T00:10:56;5.20;;;4.80;;
11537;SDS011;50159;49.426;11.182;2023-04-09T00:13:24;4.80;;;4.40;;
11537;SDS011;50159;49.426;11.182;2023-04-09T00:16:04;4.57;;;4.27;;
11537;SDS011;50159;49.426;11.182;2023-04-09T00:18:32;4.80;;;4.40;;
11537;SDS011;50159;49.426;11.182;2023-04-09T00:20:59;4.33;;;4.03;;
11537;SDS011;50159;49.426;11.182;2023-04-09T00:23:26;3.90;;;3.70;;
11537;SDS011;50159;49.426;11.182;2023-04-09T00:25:53;4.40;;;4.10;;
11537;SDS011;50159;49.426;11.182;2023-04-09T00:28:19;4.57;;;4.23;;
11537;SDS011;50159;49.426;11.182;2023-04-09T00:30:46;4.67;;;4.37;;
11537;SDS011;50159;49.426;11.182;2023-04-09T00:33:13;4.13;;;3.87;;
11537;SDS011;50159;49.426;11.182;2023-04-09T00:35:40;4.30;;;4.10;;
11537;SDS011;50159;49.426;11.182;2023-04-09T00:38:06;4.50;;;4.20;;
11537;SDS011;50159;49.426;11.182;2023-04-09T00:40:33;4.53;;;4.20;;
11537;SDS011;50159;49.426;11.182;2023-04-09T00:43:00;4.27;;;3.97;;
11537;SDS011;50159;49.426;11.182;2023-04-09T00:45:27;4.67;;;4.27;;
11537;SDS011;50159;49.426;11.182;2023-04-09T00:47:54;4.83;;;4.43;;
11537;SDS011;50159;49.426;11.182;2023-04-09T00:50:21;5.10;;;4.70;;
11537;SDS011;50159;49.426;11.182;2023-04-09T00:52:48;5.07;;;4.57;;
11537;SDS011;50159;49.426;11.182;2023-04-09T00:55:14;4.63;;;4.23;;
11537;SDS011;50159;49.426;11.182;2023-04-09T00:57:43;4.77;;;4.47;;
11537;SDS011;50159;49.426;11.182;2023-04-09T01:00:10;5.53;;;5.10;;
11537;SDS011;50159;49.426;11.182;2023-04-09T01:02:38;5.20;;;4.80;;
11537;SDS011;50159;49.426;11.182;2023-04-09T01:05:06;4.90;;;4.60;;
11537;SDS011;50159;49.426;11.182;2023-04-09T01:10:35;4.57;;;4.27;;
11537;SDS011;50159;49.426;11.182;2023-04-09T01:13:18;4.80;;;4.50;;
11537;SDS011;50159;49.426;11.182;2023-04-09T01:16:16;5.70;;;5.20;;
11537;SDS011;50159;49.426;11.182;2023-04-09T01:18:52;4.93;;;4.63;;
11537;SDS011;50159;49.426;11.182;2023-04-09T01:21:56;5.97;;;5.43;;
11537;SDS011;50159;49.426;11.182;2023-04-09T01:27:22;5.07;;;4.63;;
11537;SDS011;50159;49.426;11.182;2023-04-09T01:29:52;5.73;;;5.10;;
11537;SDS011;50159;49.426;11.182;2023-04-09T01:32:21;5.27;;;4.87;;
11537;SDS011;50159;49.426;11.182;2023-04-09T01:34:51;5.43;;;4.93;;
11537;SDS011;50159;49.426;11.182;2023-04-09T01:37:19;5.67;;;5.20;;
11537;SDS011;50159;49.426;11.182;2023-04-09T01:39:48;5.83;;;5.33;;
11537;SDS011;50159;49.426;11.182;2023-04-09T01:42:15;5.67;;;5.27;;
11537;SDS011;50159;49.426;11.182;2023-04-09T01:44:43;5.63;;;5.20;;
11537;SDS011;50159;49.426;11.182;2023-04-09T01:47:11;6.27;;;5.77;;
11537;SDS011;50159;49.426;11.182;2023-04-09T01:49:39;5.87;;;5.37;;
11537;SDS011;50159;49.426;11.182;2023-04-09T01:52:07;6.00;;;5.60;;
11537;SDS011;50159;49.426;11.182;2023-04-09T01:54:35;6.70;;;6.07;;
11537;SDS011;50159;49.426;11.182;2023-04-09T01:57:02;6.80;;;6.27;;
11537;SDS011;50159;49.426;11.182;2023-04-09T01:59:29;6.63;;;5.13;;
11537;SDS011;50159;49.426;11.182;2023-04-09T02:02:00;5.97;;;5.50;;
11537;SDS011;50159;49.426;11.182;2023-04-09T02:04:39;6.57;;;6.00;;
11537;SDS011;50159;49.426;11.182;2023-04-09T02:10:05;6.47;;;5.97;;
11537;SDS011;50159;49.426;11.182;2023-04-09T02:12:35;5.60;;;5.20;;
11537;SDS011;50159;49.426;11.182;2023-04-09T02:15:03;6.30;;;5.80;;
11537;SDS011;50159;49.426;11.182;2023-04-09T02:17:32;6.23;;;5.73;;
11537;SDS011;50159;49.426;11.182;2023-04-09T02:19:59;5.03;;;4.63;;
11537;SDS011;50159;49.426;11.182;2023-04-09T02:22:26;6.17;;;5.67;;
11537;SDS011;50159;49.426;11.182;2023-04-09T02:24:53;6.77;;;6.17;;
11537;SDS011;50159;49.426;11.182;2023-04-09T02:27:20;6.13;;;5.53;;
11537;SDS011;50159;49.426;11.182;2023-04-09T02:29:46;8.53;;;5.37;;
11537;SDS011;50159;49.426;11.182;2023-04-09T02:32:13;5.70;;;5.30;;
11537;SDS011;50159;49.426;11.182;2023-04-09T02:34:40;6.40;;;5.43;;
11537;SDS011;50159;49.426;11.182;2023-04-09T02:37:07;5.97;;;5.47;;
11537;SDS011;50159;49.426;11.182;2023-04-09T02:39:34;5.37;;;4.97;;
11537;SDS011;50159;49.426;11.182;2023-04-09T02:42:01;5.57;;;5.17;;
11537;SDS011;50159;49.426;11.182;2023-04-09T02:44:28;5.60;;;5.20;;
11537;SDS011;50159;49.426;11.182;2023-04-09T02:46:54;6.10;;;5.50;;
11537;SDS011;50159;49.426;11.182;2023-04-09T02:49:21;5.73;;;5.23;;
11537;SDS011;50159;49.426;11.182;2023-04-09T02:51:48;6.00;;;5.40;;
11537;SDS011;50159;49.426;11.182;2023-04-09T02:54:15;6.33;;;5.70;;
11537;SDS011;50159;49.426;11.182;2023-04-09T02:56:41;6.03;;;5.53;;
11537;SDS011;50159;49.426;11.182;2023-04-09T02:59:08;5.83;;;5.37;;
11537;SDS011;50159;49.426;11.182;2023-04-09T03:01:35;7.57;;;6.23;;
11537;SDS011;50159;49.426;11.182;2023-04-09T03:04:02;5.60;;;5.20;;
11537;SDS011;50159;49.426;11.182;2023-04-09T03:06:29;5.90;;;5.40;;
11537;SDS011;50159;49.426;11.182;2023-04-09T03:08:56;5.63;;;5.23;;
11537;SDS011;50159;49.426;11.182;2023-04-09T03:11:23;6.40;;;5.80;;
11537;SDS011;50159;49.426;11.182;2023-04-09T03:13:49;6.03;;;5.53;;
11537;SDS011;50159;49.426;11.182;2023-04-09T03:16:16;6.20;;;5.60;;
11537;SDS011;50159;49.426;11.182;2023-04-09T03:18:43;6.73;;;6.20;;
11537;SDS011;50159;49.426;11.182;2023-04-09T03:21:09;6.27;;;5.80;;
11537;SDS011;50159;49.426;11.182;2023-04-09T03:23:40;6.13;;;5.63;;
11537;SDS011;50159;49.426;11.182;2023-04-09T03:26:06;6.93;;;6.20;;
11537;SDS011;50159;49.426;11.182;2023-04-09T03:28:33;5.90;;;5.40;;
11537;SDS011;50159;49.426;11.182;2023-04-09T03:31:00;6.73;;;6.13;;
11537;SDS011;50159;49.426;11.182;2023-04-09T03:33:27;6.23;;;5.63;;
11537;SDS011;50159;49.426;11.182;2023-04-09T03:35:54;6.47;;;5.97;;
11537;SDS011;50159;49.426;11.182;2023-04-09T03:38:21;6.07;;;5.60;;
11537;SDS011;50159;49.426;11.182;2023-04-09T03:40:47;5.80;;;5.40;;
11537;SDS011;50159;49.426;11.182;2023-04-09T03:43:14;6.27;;;5.47;;
11537;SDS011;50159;49.426;11.182;2023-04-09T03:45:41;6.27;;;5.67;;
11537;SDS011;50159;49.426;11.182;2023-04-09T03:48:08;6.30;;;5.80;;
11537;SDS011;50159;49.426;11.182;2023-04-09T03:50:38;6.50;;;6.00;;
11537;SDS011;50159;49.426;11.182;2023-04-09T03:53:06;6.10;;;5.57;;
11537;SDS011;50159;49.426;11.182;2023-04-09T03:55:33;6.23;;;5.33;;
11537;SDS011;50159;49.426;11.182;2023-04-09T03:58:00;7.10;;;5.03;;
11537;SDS011;50159;49.426;11.182;2023-04-09T04:00:27;6.47;;;5.87;;
11537;SDS011;50159;49.426;11.182;2023-04-09T04:02:53;5.47;;;5.07;;
11537;SDS011;50159;49.426;11.182;2023-04-09T04:05:24;5.67;;;5.17;;
11537;SDS011;50159;49.426;11.182;2023-04-09T04:07:51;5.47;;;5.07;;
11537;SDS011;50159;49.426;11.182;2023-04-09T04:10:18;6.03;;;5.53;;
11537;SDS011;50159;49.426;11.182;2023-04-09T04:12:45;7.00;;;6.30;;
11537;SDS011;50159;49.426;11.182;2023-04-09T04:15:12;6.20;;;5.60;;
11537;SDS011;50159;49.426;11.182;2023-04-09T04:17:39;5.10;;;4.80;;
11537;SDS011;50159;49.426;11.182;2023-04-09T04:20:06;5.83;;;5.37;;
11537;SDS011;50159;49.426;11.182;2023-04-09T04:22:33;6.57;;;5.90;;
11537;SDS011;50159;49.426;11.182;2023-04-09T04:25:01;7.23;;;5.00;;
11537;SDS011;50159;49.426;11.182;2023-04-09T04:27:29;5.50;;;5.00;;
11537;SDS011;50159;49.426;11.182;2023-04-09T04:29:57;6.73;;;6.10;;
11537;SDS011;50159;49.426;11.182;2023-04-09T04:32:25;6.47;;;5.67;;
11537;SDS011;50159;49.426;11.182;2023-04-09T04:34:52;6.83;;;6.13;;
11537;SDS011;50159;49.426;11.182;2023-04-09T04:37:19;7.10;;;6.37;;
11537;SDS011;50159;49.426;11.182;2023-04-09T04:39:46;6.50;;;5.90;;
11537;SDS011;50159;49.426;11.182;2023-04-09T04:42:13;6.10;;;5.60;;
11537;SDS011;50159;49.426;11.182;2023-04-09T04:44:40;6.40;;;5.80;;
11537;SDS011;50159;49.426;11.182;2023-04-09T04:47:08;5.97;;;5.47;;
11537;SDS011;50159;49.426;11.182;2023-04-09T04:49:35;6.17;;;5.67;;
11537;SDS011;50159;49.426;11.182;2023-04-09T04:52:02;6.93;;;6.23;;
11537;SDS011;50159;49.426;11.182;2023-04-09T04:54:28;6.90;;;6.20;;
11537;SDS011;50159;49.426;11.182;2023-04-09T04:56:56;6.50;;;5.83;;
11537;SDS011;50159;49.426;11.182;2023-04-09T04:59:23;6.40;;;5.80;;
11537;SDS011;50159;49.426;11.182;2023-04-09T05:01:49;6.33;;;5.73;;
11537;SDS011;50159;49.426;11.182;2023-04-09T05:04:16;6.03;;;5.53;;
11537;SDS011;50159;49.426;11.182;2023-04-09T05:06:43;6.77;;;5.70;;
11537;SDS011;50159;49.426;11.182;2023-04-09T05:09:10;7.30;;;6.60;;
11537;SDS011;50159;49.426;11.182;2023-04-09T05:11:37;6.73;;;6.13;;
11537;SDS011;50159;49.426;11.182;2023-04-09T05:14:04;5.53;;;5.03;;
11537;SDS011;50159;49.426;11.182;2023-04-09T05:16:31;7.37;;;6.40;;
11537;SDS011;50159;49.426;11.182;2023-04-09T05:18:58;6.67;;;6.07;;
11537;SDS011;50159;49.426;11.182;2023-04-09T05:21:25;6.70;;;6.07;;
11537;SDS011;50159;49.426;11.182;2023-04-09T05:23:52;6.90;;;6.30;;
11537;SDS011;50159;49.426;11.182;2023-04-09T05:26:19;7.57;;;6.50;;
11537;SDS011;50159;49.426;11.182;2023-04-09T05:28:46;6.43;;;5.93;;
11537;SDS011;50159;49.426;11.182;2023-04-09T05:31:14;8.57;;;6.53;;
11537;SDS011;50159;49.426;11.182;2023-04-09T05:33:41;6.83;;;6.13;;
11537;SDS011;50159;49.426;11.182;2023-04-09T05:36:13;6.10;;;5.60;;
11537;SDS011;50159;49.426;11.182;2023-04-09T05:38:42;6.23;;;5.73;;
11537;SDS011;50159;49.426;11.182;2023-04-09T05:41:11;6.67;;;6.07;;
11537;SDS011;50159;49.426;11.182;2023-04-09T05:43:38;6.90;;;6.30;;
11537;SDS011;50159;49.426;11.182;2023-04-09T05:46:05;6.60;;;6.00;;
11537;SDS011;50159;49.426;11.182;2023-04-09T05:48:35;7.70;;;6.20;;
11537;SDS011;50159;49.426;11.182;2023-04-09T05:51:02;6.27;;;5.67;;
11537;SDS011;50159;49.426;11.182;2023-04-09T05:53:29;6.70;;;6.10;;
11537;SDS011;50159;49.426;11.182;2023-04-09T05:55:57;7.40;;;6.70;;
11537;SDS011;50159;49.426;11.182;2023-04-09T05:58:23;6.67;;;6.07;;
11537;SDS011;50159;49.426;11.182;2023-04-09T06:00:50;6.93;;;6.10;;
11537;SDS011;50159;49.426;11.182;2023-04-09T06:03:17;7.03;;;6.33;;
11537;SDS011;50159;49.426;11.182;2023-04-09T06:05:44;6.23;;;5.63;;
11537;SDS011;50159;49.426;11.182;2023-04-09T06:08:11;6.50;;;5.90;;
11537;SDS011;50159;49.426;11.182;2023-04-09T06:10:39;7.60;;;6.83;;
11537;SDS011;50159;49.426;11.182;2023-04-09T06:13:06;6.57;;;6.07;;
11537;SDS011;50159;49.426;11.182;2023-04-09T06:15:36;6.30;;;5.80;;
11537;SDS011;50159;49.426;11.182;2023-04-09T06:18:04;6.57;;;6.07;;
11537;SDS011;50159;49.426;11.182;2023-04-09T06:20:31;6.43;;;5.93;;
11537;SDS011;50159;49.426;11.182;2023-04-09T06:22:57;7.00;;;6.30;;
11537;SDS011;50159;49.426;11.182;2023-04-09T06:25:24;6.00;;;5.50;;
11537;SDS011;50159;49.426;11.182;2023-04-09T06:27:51;9.17;;;8.27;;
11537;SDS011;50159;49.426;11.182;2023-04-09T06:30:18;11.87;;;9.90;;
11537;SDS011;50159;49.426;11.182;2023-04-09T06:32:44;6.27;;;5.77;;
11537;SDS011;50159;49.426;11.182;2023-04-09T06:35:20;7.33;;;6.63;;
11537;SDS011;50159;49.426;11.182;2023-04-09T06:37:48;7.83;;;7.07;;
11537;SDS011;50159;49.426;11.182;2023-04-09T06:40:15;7.77;;;7.07;;
11537;SDS011;50159;49.426;11.182;2023-04-09T06:42:41;7.20;;;6.47;;
11537;SDS011;50159;49.426;11.182;2023-04-09T06:45:08;7.60;;;6.90;;
11537;SDS011;50159;49.426;11.182;2023-04-09T06:47:35;7.60;;;6.90;;
11537;SDS011;50159;49.426;11.182;2023-04-09T06:50:02;8.03;;;7.23;;
11537;SDS011;50159;49.426;11.182;2023-04-09T06:52:30;8.10;;;7.30;;
11537;SDS011;50159;49.426;11.182;2023-04-09T06:54:56;7.17;;;6.47;;
11537;SDS011;50159;49.426;11.182;2023-04-09T06:57:24;7.07;;;6.47;;
11537;SDS011;50159;49.426;11.182;2023-04-09T06:59:51;7.10;;;6.40;;
11537;SDS011;50159;49.426;11.182;2023-04-09T07:02:18;6.93;;;6.33;;
11537;SDS011;50159;49.426;11.182;2023-04-09T07:04:45;7.60;;;6.87;;
11537;SDS011;50159;49.426;11.182;2023-04-09T07:07:13;7.83;;;7.10;;
11537;SDS011;50159;49.426;11.182;2023-04-09T07:09:40;8.00;;;7.10;;
11537;SDS011;50159;49.426;11.182;2023-04-09T07:12:07;8.47;;;7.63;;
11537;SDS011;50159;49.426;11.182;2023-04-09T07:14:34;7.57;;;6.97;;
11537;SDS011;50159;49.426;11.182;2023-04-09T07:17:01;10.50;;;9.43;;
11537;SDS011;50159;49.426;11.182;2023-04-09T07:19:27;13.37;;;10.43;;
11537;SDS011;50159;49.426;11.182;2023-04-09T07:21:54;12.80;;;10.60;;
11537;SDS011;50159;49.426;11.182;2023-04-09T07:24:21;11.90;;;10.20;;
11537;SDS011;50159;49.426;11.182;2023-04-09T07:26:48;12.67;;;10.70;;
11537;SDS011;50159;49.426;11.182;2023-04-09T07:29:17;14.10;;;11.23;;
11537;SDS011;50159;49.426;11.182;2023-04-09T07:31:45;13.60;;;11.67;;
11537;SDS011;50159;49.426;11.182;2023-04-09T07:34:12;13.43;;;11.27;;
11537;SDS011;50159;49.426;11.182;2023-04-09T07:36:39;13.87;;;11.60;;
11537;SDS011;50159;49.426;11.182;2023-04-09T07:39:08;16.03;;;13.53;;
11537;SDS011;50159;49.426;11.182;2023-04-09T07:41:34;12.80;;;11.50;;
11537;SDS011;50159;49.426;11.182;2023-04-09T07:44:02;12.47;;;10.97;;
11537;SDS011;50159;49.426;11.182;2023-04-09T07:46:31;15.63;;;12.07;;
11537;SDS011;50159;49.426;11.182;2023-04-09T07:48:58;13.57;;;11.80;;
11537;SDS011;50159;49.426;11.182;2023-04-09T07:51:25;16.00;;;12.37;;
11537;SDS011;50159;49.426;11.182;2023-04-09T07:53:52;16.53;;;13.53;;
11537;SDS011;50159;49.426;11.182;2023-04-09T07:56:19;15.57;;;13.13;;
11537;SDS011;50159;49.426;11.182;2023-04-09T07:58:46;17.27;;;13.03;;
11537;SDS011;50159;49.426;11.182;2023-04-09T08:01:14;13.37;;;11.33;;
11537;SDS011;50159;49.426;11.182;2023-04-09T08:03:41;16.53;;;13.07;;
11537;SDS011;50159;49.426;11.182;2023-04-09T08:06:08;13.17;;;11.50;;
11537;SDS011;50159;49.426;11.182;2023-04-09T08:08:35;15.13;;;11.90;;
11537;SDS011;50159;49.426;11.182;2023-04-09T08:11:02;16.83;;;12.73;;
11537;SDS011;50159;49.426;11.182;2023-04-09T08:13:29;12.40;;;10.53;;
11537;SDS011;50159;49.426;11.182;2023-04-09T08:15:56;15.60;;;11.97;;
11537;SDS011;50159;49.426;11.182;2023-04-09T08:18:27;15.13;;;11.83;;
11537;SDS011;50159;49.426;11.182;2023-04-09T08:20:54;12.43;;;10.73;;
11537;SDS011;50159;49.426;11.182;2023-04-09T08:23:22;15.73;;;12.30;;
11537;SDS011;50159;49.426;11.182;2023-04-09T08:25:49;13.33;;;11.33;;
11537;SDS011;50159;49.426;11.182;2023-04-09T08:28:16;13.33;;;11.23;;
11537;SDS011;50159;49.426;11.182;2023-04-09T08:30:42;11.10;;;10.00;;
11537;SDS011;50159;49.426;11.182;2023-04-09T08:33:09;13.37;;;11.03;;
11537;SDS011;50159;49.426;11.182;2023-04-09T08:35:36;13.80;;;11.87;;
11537;SDS011;50159;49.426;11.182;2023-04-09T08:38:05;12.97;;;10.93;;
11537;SDS011;50159;49.426;11.182;2023-04-09T08:40:35;15.50;;;12.90;;
11537;SDS011;50159;49.426;11.182;2023-04-09T08:43:05;14.27;;;10.70;;
11537;SDS011;50159;49.426;11.182;2023-04-09T08:45:34;12.20;;;10.90;;
11537;SDS011;50159;49.426;11.182;2023-04-09T08:48:01;13.53;;;11.90;;
11537;SDS011;50159;49.426;11.182;2023-04-09T08:50:30;12.80;;;10.93;;
11537;SDS011;50159;49.426;11.182;2023-04-09T08:53:01;12.37;;;9.93;;
11537;SDS011;50159;49.426;11.182;2023-04-09T08:55:29;14.43;;;11.70;;
11537;SDS011;50159;49.426;11.182;2023-04-09T08:57:56;13.40;;;11.23;;
11537;SDS011;50159;49.426;11.182;2023-04-09T09:00:23;13.13;;;11.00;;
11537;SDS011;50159;49.426;11.182;2023-04-09T09:02:59;11.53;;;10.20;;
11537;SDS011;50159;49.426;11.182;2023-04-09T09:08:02;11.93;;;10.73;;
11537;SDS011;50159;49.426;11.182;2023-04-09T09:10:36;13.50;;;10.43;;
11537;SDS011;50159;49.426;11.182;2023-04-09T09:13:15;12.03;;;10.80;;
11537;SDS011;50159;49.426;11.182;2023-04-09T09:16:10;12.17;;;10.27;;
11537;SDS011;50159;49.426;11.182;2023-04-09T09:18:40;11.17;;;9.97;;
11537;SDS011;50159;49.426;11.182;2023-04-09T09:21:13;11.57;;;10.03;;
11537;SDS011;50159;49.426;11.182;2023-04-09T09:23:44;12.10;;;9.70;;
11537;SDS011;50159;49.426;11.182;2023-04-09T09:26:13;10.97;;;9.80;;
11537;SDS011;50159;49.426;11.182;2023-04-09T09:28:43;11.43;;;9.93;;
11537;SDS011;50159;49.426;11.182;2023-04-09T09:31:15;12.57;;;9.20;;
11537;SDS011;50159;49.426;11.182;2023-04-09T09:33:44;8.60;;;7.80;;
11537;SDS011;50159;49.426;11.182;2023-04-09T09:36:12;8.07;;;7.33;;
11537;SDS011;50159;49.426;11.182;2023-04-09T09:38:51;15.90;;;11.47;;
11537;SDS011;50159;49.426;11.182;2023-04-09T09:41:22;10.43;;;8.90;;
11537;SDS011;50159;49.426;11.182;2023-04-09T09:43:51;10.50;;;8.13;;
11537;SDS011;50159;49.426;11.182;2023-04-09T09:46:19;13.73;;;9.90;;
11537;SDS011;50159;49.426;11.182;2023-04-09T09:48:47;10.07;;;8.50;;
11537;SDS011;50159;49.426;11.182;2023-04-09T09:51:15;12.87;;;9.00;;
11537;SDS011;50159;49.426;11.182;2023-04-09T09:53:42;10.50;;;8.43;;
11537;SDS011;50159;49.426;11.182;2023-04-09T09:56:14;10.23;;;8.50;;
11537;SDS011;50159;49.426;11.182;2023-04-09T10:01:43;8.40;;;7.30;;
11537;SDS011;50159;49.426;11.182;2023-04-09T10:04:13;8.60;;;7.30;;
11537;SDS011;50159;49.426;11.182;2023-04-09T10:06:44;7.03;;;6.33;;
11537;SDS011;50159;49.426;11.182;2023-04-09T10:09:12;6.90;;;6.30;;
11537;SDS011;50159;49.426;11.182;2023-04-09T10:11:40;7.27;;;6.07;;
11537;SDS011;50159;49.426;11.182;2023-04-09T10:14:08;6.87;;;6.27;;
11537;SDS011;50159;49.426;11.182;2023-04-09T10:16:36;8.47;;;7.67;;
11537;SDS011;50159;49.426;11.182;2023-04-09T10:19:02;7.93;;;7.17;;
11537;SDS011;50159;49.426;11.182;2023-04-09T10:21:46;7.63;;;6.93;;
11537;SDS011;50159;49.426;11.182;2023-04-09T10:24:24;9.00;;;6.97;;
11537;SDS011;50159;49.426;11.182;2023-04-09T10:26:52;7.63;;;6.57;;
11537;SDS011;50159;49.426;11.182;2023-04-09T10:29:26;6.63;;;6.03;;
11537;SDS011;50159;49.426;11.182;2023-04-09T10:32:02;6.60;;;6.00;;
11537;SDS011;50159;49.426;11.182;2023-04-09T10:34:36;6.73;;;6.10;;
11537;SDS011;50159;49.426;11.182;2023-04-09T10:37:06;6.03;;;5.43;;
11537;SDS011;50159;49.426;11.182;2023-04-09T10:39:38;5.17;;;4.80;;
11537;SDS011;50159;49.426;11.182;2023-04-09T10:42:13;6.07;;;5.27;;
11537;SDS011;50159;49.426;11.182;2023-04-09T10:44:44;5.80;;;5.40;;
11537;SDS011;50159;49.426;11.182;2023-04-09T10:47:11;5.87;;;5.37;;
11537;SDS011;50159;49.426;11.182;2023-04-09T10:49:57;5.77;;;5.27;;
11537;SDS011;50159;49.426;11.182;2023-04-09T10:52:28;6.10;;;5.60;;
11537;SDS011;50159;49.426;11.182;2023-04-09T10:54:55;5.70;;;5.20;;
11537;SDS011;50159;49.426;11.182;2023-04-09T10:57:22;6.60;;;6.00;;
11537;SDS011;50159;49.426;11.182;2023-04-09T10:59:53;5.77;;;5.27;;
11537;SDS011;50159;49.426;11.182;2023-04-09T11:05:18;5.73;;;5.23;;
11537;SDS011;50159;49.426;11.182;2023-04-09T11:08:03;8.80;;;8.00;;
11537;SDS011;50159;49.426;11.182;2023-04-09T11:10:36;35.23;;;31.33;;
11537;SDS011;50159;49.426;11.182;2023-04-09T11:13:04;84.77;;;68.43;;
11537;SDS011;50159;49.426;11.182;2023-04-09T11:15:33;118.87;;;91.07;;
11537;SDS011;50159;49.426;11.182;2023-04-09T11:18:02;178.27;;;123.30;;
11537;SDS011;50159;49.426;11.182;2023-04-09T11:20:32;223.27;;;130.67;;
11537;SDS011;50159;49.426;11.182;2023-04-09T11:22:59;227.90;;;128.80;;
11537;SDS011;50159;49.426;11.182;2023-04-09T11:25:28;54.13;;;40.67;;
11537;SDS011;50159;49.426;11.182;2023-04-09T11:27:58;66.10;;;43.13;;
11537;SDS011;50159;49.426;11.182;2023-04-09T11:30:27;7.83;;;7.03;;
11537;SDS011;50159;49.426;11.182;2023-04-09T11:32:54;6.43;;;5.93;;
11537;SDS011;50159;49.426;11.182;2023-04-09T11:35:21;6.03;;;5.53;;
11537;SDS011;50159;49.426;11.182;2023-04-09T11:37:49;6.10;;;5.50;;
11537;SDS011;50159;49.426;11.182;2023-04-09T11:40:18;5.53;;;5.10;;
11537;SDS011;50159;49.426;11.182;2023-04-09T11:42:48;5.73;;;5.27;;
11537;SDS011;50159;49.426;11.182;2023-04-09T11:45:19;5.90;;;5.30;;
11537;SDS011;50159;49.426;11.182;2023-04-09T11:47:53;5.23;;;4.73;;
11537;SDS011;50159;49.426;11.182;2023-04-09T11:50:21;5.27;;;4.77;;
11537;SDS011;50159;49.426;11.182;2023-04-09T11:52:48;5.40;;;5.00;;
11537;SDS011;50159;49.426;11.182;2023-04-09T11:55:25;6.13;;;5.60;;
11537;SDS011;50159;49.426;11.182;2023-04-09T11:57:58;5.73;;;5.00;;
11537;SDS011;50159;49.426;11.182;2023-04-09T12:00:27;5.60;;;5.10;;
11537;SDS011;50159;49.426;11.182;2023-04-09T12:03:02;5.67;;;5.27;;
11537;SDS011;50159;49.426;11.182;2023-04-09T12:05:31;5.27;;;4.77;;
11537;SDS011;50159;49.426;11.182;2023-04-09T12:08:00;5.10;;;4.80;;
11537;SDS011;50159;49.426;11.182;2023-04-09T12:10:31;5.20;;;4.90;;
11537;SDS011;50159;49.426;11.182;2023-04-09T12:13:01;5.83;;;5.33;;
11537;SDS011;50159;49.426;11.182;2023-04-09T12:15:35;7.67;;;5.63;;
11537;SDS011;50159;49.426;11.182;2023-04-09T12:18:09;5.80;;;5.30;;
11537;SDS011;50159;49.426;11.182;2023-04-09T12:20:39;5.43;;;4.90;;
11537;SDS011;50159;49.426;11.182;2023-04-09T12:23:09;5.50;;;5.10;;
11537;SDS011;50159;49.426;11.182;2023-04-09T12:25:40;5.37;;;4.97;;
11537;SDS011;50159;49.426;11.182;2023-04-09T12:28:10;5.40;;;4.90;;
11537;SDS011;50159;49.426;11.182;2023-04-09T12:30:43;6.13;;;5.63;;
11537;SDS011;50159;49.426;11.182;2023-04-09T12:33:10;5.70;;;5.30;;
11537;SDS011;50159;49.426;11.182;2023-04-09T12:35:37;4.97;;;4.67;;
11537;SDS011;50159;49.426;11.182;2023-04-09T12:38:04;5.30;;;4.90;;
11537;SDS011;50159;49.426;11.182;2023-04-09T12:40:31;6.00;;;5.40;;
11537;SDS011;50159;49.426;11.182;2023-04-09T12:43:00;5.23;;;4.73;;
11537;SDS011;50159;49.426;11.182;2023-04-09T12:45:28;4.77;;;4.40;;
11537;SDS011;50159;49.426;11.182;2023-04-09T12:47:56;4.53;;;4.23;;
11537;SDS011;50159;49.426;11.182;2023-04-09T12:50:23;4.93;;;4.53;;
11537;SDS011;50159;49.426;11.182;2023-04-09T12:52:50;5.63;;;5.13;;
11537;SDS011;50159;49.426;11.182;2023-04-09T12:55:17;5.70;;;5.30;;
11537;SDS011;50159;49.426;11.182;2023-04-09T12:57:44;5.00;;;4.60;;
11537;SDS011;50159;49.426;11.182;2023-04-09T13:00:14;5.70;;;5.20;;
11537;SDS011;50159;49.426;11.182;2023-04-09T13:02:41;5.27;;;4.87;;
11537;SDS011;50159;49.426;11.182;2023-04-09T13:05:08;5.57;;;5.17;;
11537;SDS011;50159;49.426;11.182;2023-04-09T13:07:35;5.67;;;5.23;;
11537;SDS011;50159;49.426;11.182;2023-04-09T13:10:02;5.93;;;5.43;;
11537;SDS011;50159;49.426;11.182;2023-04-09T13:12:29;5.67;;;5.27;;
11537;SDS011;50159;49.426;11.182;2023-04-09T13:14:56;6.30;;;5.70;;
11537;SDS011;50159;49.426;11.182;2023-04-09T13:17:24;6.70;;;5.87;;
11537;SDS011;50159;49.426;11.182;2023-04-09T13:19:51;6.10;;;5.50;;
11537;SDS011;50159;49.426;11.182;2023-04-09T13:22:18;6.03;;;5.47;;
11537;SDS011;50159;49.426;11.182;2023-04-09T13:24:45;5.57;;;5.13;;
11537;SDS011;50159;49.426;11.182;2023-04-09T13:27:13;6.53;;;5.93;;
11537;SDS011;50159;49.426;11.182;2023-04-09T13:29:41;10.17;;;6.33;;
11537;SDS011;50159;49.426;11.182;2023-04-09T13:32:08;6.17;;;5.67;;
11537;SDS011;50159;49.426;11.182;2023-04-09T13:34:36;5.73;;;5.33;;
11537;SDS011;50159;49.426;11.182;2023-04-09T13:37:04;6.17;;;5.67;;
11537;SDS011;50159;49.426;11.182;2023-04-09T13:39:31;5.27;;;4.87;;
11537;SDS011;50159;49.426;11.182;2023-04-09T13:41:58;5.23;;;4.83;;
11537;SDS011;50159;49.426;11.182;2023-04-09T13:44:38;6.57;;;5.87;;
11537;SDS011;50159;49.426;11.182;2023-04-09T13:47:07;6.80;;;6.10;;
11537;SDS011;50159;49.426;11.182;2023-04-09T13:49:36;6.30;;;5.70;;
11537;SDS011;50159;49.426;11.182;2023-04-09T13:52:02;5.77;;;5.27;;
11537;SDS011;50159;49.426;11.182;2023-04-09T13:54:30;6.07;;;5.57;;
11537;SDS011;50159;49.426;11.182;2023-04-09T13:56:58;6.07;;;5.57;;
11537;SDS011;50159;49.426;11.182;2023-04-09T13:59:25;6.13;;;5.60;;
11537;SDS011;50159;49.426;11.182;2023-04-09T14:01:52;5.13;;;4.73;;
11537;SDS011;50159;49.426;11.182;2023-04-09T14:04:19;6.93;;;6.30;;
11537;SDS011;50159;49.426;11.182;2023-04-09T14:06:46;5.93;;;5.33;;
11537;SDS011;50159;49.426;11.182;2023-04-09T14:09:13;5.20;;;4.80;;
11537;SDS011;50159;49.426;11.182;2023-04-09T14:11:40;5.43;;;5.03;;
11537;SDS011;50159;49.426;11.182;2023-04-09T14:14:07;5.47;;;5.07;;
11537;SDS011;50159;49.426;11.182;2023-04-09T14:16:34;5.30;;;4.90;;
11537;SDS011;50159;49.426;11.182;2023-04-09T14:19:01;5.60;;;5.10;;
11537;SDS011;50159;49.426;11.182;2023-04-09T14:21:28;4.87;;;4.47;;
11537;SDS011;50159;49.426;11.182;2023-04-09T14:23:55;4.73;;;4.43;;
11537;SDS011;50159;49.426;11.182;2023-04-09T14:26:21;4.67;;;4.27;;
11537;SDS011;50159;49.426;11.182;2023-04-09T14:28:49;4.50;;;4.20;;
11537;SDS011;50159;49.426;11.182;2023-04-09T14:31:17;3.93;;;3.73;;
11537;SDS011;50159;49.426;11.182;2023-04-09T14:33:47;4.70;;;4.40;;
11537;SDS011;50159;49.426;11.182;2023-04-09T14:36:14;4.23;;;3.93;;
11537;SDS011;50159;49.426;11.182;2023-04-09T14:38:41;3.83;;;3.63;;
11537;SDS011;50159;49.426;11.182;2023-04-09T14:41:08;3.67;;;3.47;;
11537;SDS011;50159;49.426;11.182;2023-04-09T14:43:35;3.63;;;3.43;;
11537;SDS011;50159;49.426;11.182;2023-04-09T14:46:02;4.23;;;3.83;;
11537;SDS011;50159;49.426;11.182;2023-04-09T14:48:31;4.67;;;4.37;;
11537;SDS011;50159;49.426;11.182;2023-04-09T14:50:58;4.13;;;3.93;;
11537;SDS011;50159;49.426;11.182;2023-04-09T14:53:24;5.07;;;4.77;;